Aviation Digital Data Service (ADDS)

Output produced by TAFs form (2043 UTC 06 May 2016)
found at http://www.aviationweather.gov/adds/tafs/
 
KDEN 062039Z 11008KT 10SM TS BKN080CB BKN140 BKN220 25/02 A2990 RMK AO2 TSE33B39 LTGIC S-W VIRGA S-W TS SW MOV N T02500022
KDEN 062040Z 0621/0724 15012KT P6SM VCTS SCT080CB BKN140 
     TEMPO 0621/0701 VRB25G40KT -TSRA BKN080CB 
     FM070200 17014G24KT P6SM FEW120 SCT220 
     FM071000 19012KT P6SM FEW140 SCT220 
     FM071400 04008KT P6SM SCT080 BKN140 
     FM071900 07020G28KT P6SM SCT100 BKN180